sensor_id;sensor_type;location;lat;lon;timestamp;P1;durP1;ratioP1;P2;durP2;ratioP2
22711;SDS011;11523;50.390;8.072;2022-10-16T04:01:48;1.67;;;0.90;;
22711;SDS011;11523;50.390;8.072;2022-10-16T04:04:13;1.50;;;1.40;;
22711;SDS011;11523;50.390;8.072;2022-10-16T04:06:39;2.90;;;1.60;;
22711;SDS011;11523;50.390;8.072;2022-10-16T04:09:05;5.57;;;1.30;;
22711;SDS011;11523;50.390;8.072;2022-10-16T04:11:31;3.92;;;1.50;;
22711;SDS011;11523;50.390;8.072;2022-10-16T04:13:57;3.22;;;1.20;;
22711;SDS011;11523;50.390;8.072;2022-10-16T04:16:23;2.33;;;1.25;;
22711;SDS011;11523;50.390;8.072;2022-10-16T04:18:49;10.10;;;1.63;;
22711;SDS011;11523;50.390;8.072;2022-10-16T04:21:15;4.55;;;1.20;;
22711;SDS011;11523;50.390;8.072;2022-10-16T04:23:41;3.05;;;1.15;;
22711;SDS011;11523;50.390;8.072;2022-10-16T04:26:07;3.38;;;1.50;;
22711;SDS011;11523;50.390;8.072;2022-10-16T04:28:35;2.58;;;1.27;;
22711;SDS011;11523;50.390;8.072;2022-10-16T04:31:03;4.38;;;1.65;;
22711;SDS011;11523;50.390;8.072;2022-10-16T04:33:29;2.75;;;1.65;;
22711;SDS011;11523;50.390;8.072;2022-10-16T04:35:58;4.90;;;1.30;;
22711;SDS011;11523;50.390;8.072;2022-10-16T04:38:25;3.83;;;1.30;;
22711;SDS011;11523;50.390;8.072;2022-10-16T04:40:51;2.88;;;1.50;;
22711;SDS011;11523;50.390;8.072;2022-10-16T04:43:17;4.47;;;1.77;;
22711;SDS011;11523;50.390;8.072;2022-10-16T04:45:43;3.88;;;1.40;;
22711;SDS011;11523;50.390;8.072;2022-10-16T04:48:09;3.20;;;1.30;;
22711;SDS011;11523;50.390;8.072;2022-10-16T04:50:35;2.22;;;1.35;;
22711;SDS011;11523;50.390;8.072;2022-10-16T04:53:01;4.50;;;1.30;;
22711;SDS011;11523;50.390;8.072;2022-10-16T04:55:27;2.75;;;1.20;;
22711;SDS011;11523;50.390;8.072;2022-10-16T04:57:53;3.33;;;1.35;;
22711;SDS011;11523;50.390;8.072;2022-10-16T05:00:19;4.25;;;1.38;;
22711;SDS011;11523;50.390;8.072;2022-10-16T05:02:45;4.22;;;1.25;;
22711;SDS011;11523;50.390;8.072;2022-10-16T05:05:11;1.83;;;1.30;;
22711;SDS011;11523;50.390;8.072;2022-10-16T05:07:37;2.13;;;1.30;;
22711;SDS011;11523;50.390;8.072;2022-10-16T05:10:03;4.82;;;1.75;;
22711;SDS011;11523;50.390;8.072;2022-10-16T05:12:29;3.13;;;1.15;;
22711;SDS011;11523;50.390;8.072;2022-10-16T05:14:55;2.05;;;1.35;;
22711;SDS011;11523;50.390;8.072;2022-10-16T05:17:23;4.20;;;1.40;;
22711;SDS011;11523;50.390;8.072;2022-10-16T05:19:50;5.80;;;1.50;;
22711;SDS011;11523;50.390;8.072;2022-10-16T05:22:15;3.45;;;1.20;;
22711;SDS011;11523;50.390;8.072;2022-10-16T05:24:41;8.27;;;1.52;;
22711;SDS011;11523;50.390;8.072;2022-10-16T05:27:07;6.80;;;1.30;;
22711;SDS011;11523;50.390;8.072;2022-10-16T05:29:33;3.70;;;1.20;;
22711;SDS011;11523;50.390;8.072;2022-10-16T05:32:00;2.13;;;1.30;;
22711;SDS011;11523;50.390;8.072;2022-10-16T05:34:26;3.17;;;1.20;;
22711;SDS011;11523;50.390;8.072;2022-10-16T05:36:52;4.05;;;1.10;;
22711;SDS011;11523;50.390;8.072;2022-10-16T05:39:18;4.07;;;1.60;;
22711;SDS011;11523;50.390;8.072;2022-10-16T05:41:44;1.73;;;1.40;;
22711;SDS011;11523;50.390;8.072;2022-10-16T05:44:10;2.35;;;1.40;;
22711;SDS011;11523;50.390;8.072;2022-10-16T05:46:36;5.57;;;1.48;;
22711;SDS011;11523;50.390;8.072;2022-10-16T05:49:02;2.97;;;1.50;;
22711;SDS011;11523;50.390;8.072;2022-10-16T05:51:28;3.60;;;1.30;;
22711;SDS011;11523;50.390;8.072;2022-10-16T05:53:54;4.85;;;1.48;;
22711;SDS011;11523;50.390;8.072;2022-10-16T05:56:20;7.65;;;1.77;;
22711;SDS011;11523;50.390;8.072;2022-10-16T05:58:46;6.93;;;1.75;;
22711;SDS011;11523;50.390;8.072;2022-10-16T06:01:13;6.93;;;1.88;;
22711;SDS011;11523;50.390;8.072;2022-10-16T06:03:39;6.05;;;1.92;;
22711;SDS011;11523;50.390;8.072;2022-10-16T06:06:12;6.35;;;2.25;;
22711;SDS011;11523;50.390;8.072;2022-10-16T06:08:39;6.82;;;1.92;;
22711;SDS011;11523;50.390;8.072;2022-10-16T06:11:05;5.35;;;1.70;;
22711;SDS011;11523;50.390;8.072;2022-10-16T06:13:32;3.83;;;1.88;;
22711;SDS011;11523;50.390;8.072;2022-10-16T06:15:58;3.80;;;1.60;;
22711;SDS011;11523;50.390;8.072;2022-10-16T06:18:25;4.72;;;1.90;;
22711;SDS011;11523;50.390;8.072;2022-10-16T06:20:51;3.00;;;1.90;;
22711;SDS011;11523;50.390;8.072;2022-10-16T06:23:17;5.03;;;1.63;;
22711;SDS011;11523;50.390;8.072;2022-10-16T06:25:43;6.35;;;1.63;;
22711;SDS011;11523;50.390;8.072;2022-10-16T06:28:09;2.40;;;1.65;;
22711;SDS011;11523;50.390;8.072;2022-10-16T06:30:34;5.07;;;1.88;;
22711;SDS011;11523;50.390;8.072;2022-10-16T06:33:00;2.78;;;1.90;;
22711;SDS011;11523;50.390;8.072;2022-10-16T06:35:26;4.28;;;2.55;;
22711;SDS011;11523;50.390;8.072;2022-10-16T06:37:54;4.95;;;1.77;;
22711;SDS011;11523;50.390;8.072;2022-10-16T06:40:20;5.47;;;1.70;;
22711;SDS011;11523;50.390;8.072;2022-10-16T06:42:46;7.50;;;2.13;;
22711;SDS011;11523;50.390;8.072;2022-10-16T06:45:11;3.92;;;2.05;;
22711;SDS011;11523;50.390;8.072;2022-10-16T06:47:37;5.15;;;2.28;;
22711;SDS011;11523;50.390;8.072;2022-10-16T06:50:04;4.55;;;2.08;;
22711;SDS011;11523;50.390;8.072;2022-10-16T06:52:31;4.35;;;1.90;;
22711;SDS011;11523;50.390;8.072;2022-10-16T06:54:58;6.38;;;2.35;;
22711;SDS011;11523;50.390;8.072;2022-10-16T06:57:24;2.90;;;2.25;;
22711;SDS011;11523;50.390;8.072;2022-10-16T06:59:50;6.78;;;2.45;;
22711;SDS011;11523;50.390;8.072;2022-10-16T07:02:15;3.55;;;2.10;;
22711;SDS011;11523;50.390;8.072;2022-10-16T07:04:41;3.80;;;2.17;;
22711;SDS011;11523;50.390;8.072;2022-10-16T07:07:07;3.22;;;1.80;;
22711;SDS011;11523;50.390;8.072;2022-10-16T07:09:33;2.35;;;1.77;;
22711;SDS011;11523;50.390;8.072;2022-10-16T07:11:59;2.38;;;1.75;;
22711;SDS011;11523;50.390;8.072;2022-10-16T07:14:25;8.30;;;2.35;;
22711;SDS011;11523;50.390;8.072;2022-10-16T07:16:51;6.20;;;1.90;;
22711;SDS011;11523;50.390;8.072;2022-10-16T07:19:17;4.10;;;1.90;;
22711;SDS011;11523;50.390;8.072;2022-10-16T07:21:43;6.18;;;2.58;;
22711;SDS011;11523;50.390;8.072;2022-10-16T07:24:16;5.38;;;2.80;;
22711;SDS011;11523;50.390;8.072;2022-10-16T07:26:42;7.22;;;3.05;;
22711;SDS011;11523;50.390;8.072;2022-10-16T07:29:13;5.72;;;2.90;;
22711;SDS011;11523;50.390;8.072;2022-10-16T07:31:39;6.45;;;3.08;;
22711;SDS011;11523;50.390;8.072;2022-10-16T07:34:05;7.63;;;3.00;;
22711;SDS011;11523;50.390;8.072;2022-10-16T07:36:31;3.45;;;2.90;;
22711;SDS011;11523;50.390;8.072;2022-10-16T07:38:57;14.43;;;3.10;;
22711;SDS011;11523;50.390;8.072;2022-10-16T07:41:23;5.28;;;2.80;;
22711;SDS011;11523;50.390;8.072;2022-10-16T07:43:50;5.40;;;3.33;;
22711;SDS011;11523;50.390;8.072;2022-10-16T07:46:17;6.40;;;3.60;;
22711;SDS011;11523;50.390;8.072;2022-10-16T07:48:43;5.43;;;3.28;;
22711;SDS011;11523;50.390;8.072;2022-10-16T07:51:12;5.22;;;3.58;;
22711;SDS011;11523;50.390;8.072;2022-10-16T07:53:38;5.60;;;3.10;;
22711;SDS011;11523;50.390;8.072;2022-10-16T07:56:05;3.40;;;2.83;;
22711;SDS011;11523;50.390;8.072;2022-10-16T07:58:31;3.20;;;2.80;;
22711;SDS011;11523;50.390;8.072;2022-10-16T08:00:58;3.20;;;2.47;;
22711;SDS011;11523;50.390;8.072;2022-10-16T08:03:24;9.73;;;2.85;;
22711;SDS011;11523;50.390;8.072;2022-10-16T08:05:50;3.92;;;2.70;;
22711;SDS011;11523;50.390;8.072;2022-10-16T08:08:17;6.68;;;2.60;;
22711;SDS011;11523;50.390;8.072;2022-10-16T08:10:43;4.20;;;2.80;;
22711;SDS011;11523;50.390;8.072;2022-10-16T08:13:09;7.40;;;2.83;;
22711;SDS011;11523;50.390;8.072;2022-10-16T08:15:35;12.73;;;3.05;;
22711;SDS011;11523;50.390;8.072;2022-10-16T08:18:02;3.92;;;2.38;;
22711;SDS011;11523;50.390;8.072;2022-10-16T08:20:29;5.53;;;3.38;;
22711;SDS011;11523;50.390;8.072;2022-10-16T08:22:55;5.35;;;2.95;;
22711;SDS011;11523;50.390;8.072;2022-10-16T08:25:22;4.72;;;2.78;;
22711;SDS011;11523;50.390;8.072;2022-10-16T08:27:48;4.82;;;3.25;;
22711;SDS011;11523;50.390;8.072;2022-10-16T08:30:14;4.93;;;3.47;;
22711;SDS011;11523;50.390;8.072;2022-10-16T08:32:40;6.72;;;3.63;;
22711;SDS011;11523;50.390;8.072;2022-10-16T08:35:07;6.18;;;3.60;;
22711;SDS011;11523;50.390;8.072;2022-10-16T08:37:33;6.68;;;3.65;;
22711;SDS011;11523;50.390;8.072;2022-10-16T08:39:59;8.23;;;4.50;;
22711;SDS011;11523;50.390;8.072;2022-10-16T08:50:10;8.77;;;3.28;;
22711;SDS011;11523;50.390;8.072;2022-10-16T08:52:38;6.78;;;3.25;;
22711;SDS011;11523;50.390;8.072;2022-10-16T08:55:05;5.40;;;3.00;;
22711;SDS011;11523;50.390;8.072;2022-10-16T08:57:31;8.48;;;2.80;;
22711;SDS011;11523;50.390;8.072;2022-10-16T09:00:05;6.07;;;2.88;;
22711;SDS011;11523;50.390;8.072;2022-10-16T09:07:26;5.93;;;2.95;;
22711;SDS011;11523;50.390;8.072;2022-10-16T09:12:39;6.95;;;2.30;;
22711;SDS011;11523;50.390;8.072;2022-10-16T09:20:32;2.78;;;2.40;;
22711;SDS011;11523;50.390;8.072;2022-10-16T09:23:08;4.30;;;2.30;;
22711;SDS011;11523;50.390;8.072;2022-10-16T09:25:36;3.03;;;2.53;;
22711;SDS011;11523;50.390;8.072;2022-10-16T09:28:03;3.50;;;2.33;;
22711;SDS011;11523;50.390;8.072;2022-10-16T09:30:29;3.08;;;2.50;;
22711;SDS011;11523;50.390;8.072;2022-10-16T09:32:57;3.60;;;2.83;;
22711;SDS011;11523;50.390;8.072;2022-10-16T09:35:40;6.20;;;2.88;;
22711;SDS011;11523;50.390;8.072;2022-10-16T09:38:06;3.90;;;2.75;;
22711;SDS011;11523;50.390;8.072;2022-10-16T09:40:33;4.50;;;2.28;;
22711;SDS011;11523;50.390;8.072;2022-10-16T09:43:07;8.30;;;2.50;;
22711;SDS011;11523;50.390;8.072;2022-10-16T09:45:36;2.78;;;2.38;;
22711;SDS011;11523;50.390;8.072;2022-10-16T09:48:09;4.32;;;2.55;;
22711;SDS011;11523;50.390;8.072;2022-10-16T09:50:36;3.40;;;1.67;;
22711;SDS011;11523;50.390;8.072;2022-10-16T09:53:04;3.78;;;2.33;;
22711;SDS011;11523;50.390;8.072;2022-10-16T09:55:30;4.32;;;2.15;;
22711;SDS011;11523;50.390;8.072;2022-10-16T09:58:03;4.13;;;2.38;;
22711;SDS011;11523;50.390;8.072;2022-10-16T10:00:37;3.58;;;1.92;;
22711;SDS011;11523;50.390;8.072;2022-10-16T10:03:10;2.33;;;2.10;;
22711;SDS011;11523;50.390;8.072;2022-10-16T10:05:37;6.25;;;1.80;;
22711;SDS011;11523;50.390;8.072;2022-10-16T10:08:05;2.95;;;1.85;;
22711;SDS011;11523;50.390;8.072;2022-10-16T10:10:33;7.00;;;2.10;;
22711;SDS011;11523;50.390;8.072;2022-10-16T10:13:02;2.78;;;1.70;;
22711;SDS011;11523;50.390;8.072;2022-10-16T10:15:29;3.10;;;2.10;;
22711;SDS011;11523;50.390;8.072;2022-10-16T10:17:58;5.80;;;2.08;;
22711;SDS011;11523;50.390;8.072;2022-10-16T10:22:52;2.60;;;2.10;;
22711;SDS011;11523;50.390;8.072;2022-10-16T10:25:23;4.47;;;2.03;;
22711;SDS011;11523;50.390;8.072;2022-10-16T10:28:05;3.63;;;2.00;;
22711;SDS011;11523;50.390;8.072;2022-10-16T10:30:36;2.53;;;1.60;;
22711;SDS011;11523;50.390;8.072;2022-10-16T10:40:51;2.20;;;1.70;;
22711;SDS011;11523;50.390;8.072;2022-10-16T10:45:47;1.40;;;1.30;;
22711;SDS011;11523;50.390;8.072;2022-10-16T10:51:04;3.63;;;1.40;;
22711;SDS011;11523;50.390;8.072;2022-10-16T10:58:46;1.75;;;1.02;;
22711;SDS011;11523;50.390;8.072;2022-10-16T11:01:16;3.38;;;1.40;;
22711;SDS011;11523;50.390;8.072;2022-10-16T11:04:03;1.00;;;0.90;;
22711;SDS011;11523;50.390;8.072;2022-10-16T11:06:52;1.88;;;0.80;;
22711;SDS011;11523;50.390;8.072;2022-10-16T11:09:24;1.35;;;0.98;;
22711;SDS011;11523;50.390;8.072;2022-10-16T11:11:54;1.05;;;0.90;;
22711;SDS011;11523;50.390;8.072;2022-10-16T11:21:50;0.75;;;0.75;;
22711;SDS011;11523;50.390;8.072;2022-10-16T11:26:47;3.90;;;0.93;;
22711;SDS011;11523;50.390;8.072;2022-10-16T11:29:18;2.78;;;0.90;;
22711;SDS011;11523;50.390;8.072;2022-10-16T11:31:46;1.75;;;1.10;;
22711;SDS011;11523;50.390;8.072;2022-10-16T11:39:26;2.55;;;1.00;;
22711;SDS011;11523;50.390;8.072;2022-10-16T11:46:58;0.90;;;0.90;;
22711;SDS011;11523;50.390;8.072;2022-10-16T11:49:26;1.90;;;1.33;;
22711;SDS011;11523;50.390;8.072;2022-10-16T11:57:20;0.65;;;0.65;;
22711;SDS011;11523;50.390;8.072;2022-10-16T11:59:55;2.83;;;0.88;;
22711;SDS011;11523;50.390;8.072;2022-10-16T12:02:40;1.27;;;0.90;;
22711;SDS011;11523;50.390;8.072;2022-10-16T12:07:43;0.55;;;0.50;;
22711;SDS011;11523;50.390;8.072;2022-10-16T12:10:20;0.95;;;0.95;;
22711;SDS011;11523;50.390;8.072;2022-10-16T12:12:46;3.70;;;0.93;;
22711;SDS011;11523;50.390;8.072;2022-10-16T12:17:47;0.82;;;0.82;;
22711;SDS011;11523;50.390;8.072;2022-10-16T12:22:52;0.85;;;0.60;;
22711;SDS011;11523;50.390;8.072;2022-10-16T12:28:04;5.40;;;0.73;;
22711;SDS011;11523;50.390;8.072;2022-10-16T12:30:31;1.05;;;0.80;;
22711;SDS011;11523;50.390;8.072;2022-10-16T12:33:02;2.17;;;0.80;;
22711;SDS011;11523;50.390;8.072;2022-10-16T12:35:30;1.75;;;0.70;;
22711;SDS011;11523;50.390;8.072;2022-10-16T12:40:41;1.33;;;0.77;;
22711;SDS011;11523;50.390;8.072;2022-10-16T12:43:28;2.05;;;0.80;;
22711;SDS011;11523;50.390;8.072;2022-10-16T12:48:29;3.42;;;0.60;;
22711;SDS011;11523;50.390;8.072;2022-10-16T12:50:55;1.00;;;0.77;;
22711;SDS011;11523;50.390;8.072;2022-10-16T12:53:23;0.73;;;0.70;;
22711;SDS011;11523;50.390;8.072;2022-10-16T12:58:56;1.00;;;0.60;;
22711;SDS011;11523;50.390;8.072;2022-10-16T13:01:37;3.58;;;0.80;;
22711;SDS011;11523;50.390;8.072;2022-10-16T13:14:40;4.43;;;1.20;;
22711;SDS011;11523;50.390;8.072;2022-10-16T13:19:38;3.17;;;0.88;;
22711;SDS011;11523;50.390;8.072;2022-10-16T13:22:15;1.42;;;0.90;;
22711;SDS011;11523;50.390;8.072;2022-10-16T13:24:49;1.73;;;0.90;;
22711;SDS011;11523;50.390;8.072;2022-10-16T13:29:53;1.20;;;0.90;;
22711;SDS011;11523;50.390;8.072;2022-10-16T13:32:20;1.55;;;1.10;;
22711;SDS011;11523;50.390;8.072;2022-10-16T13:34:47;4.38;;;0.98;;
22711;SDS011;11523;50.390;8.072;2022-10-16T13:37:17;1.48;;;0.93;;
22711;SDS011;11523;50.390;8.072;2022-10-16T13:39:43;1.92;;;1.00;;
22711;SDS011;11523;50.390;8.072;2022-10-16T13:42:20;1.27;;;0.80;;
22711;SDS011;11523;50.390;8.072;2022-10-16T13:44:51;1.30;;;0.90;;
22711;SDS011;11523;50.390;8.072;2022-10-16T13:47:18;1.50;;;0.85;;
22711;SDS011;11523;50.390;8.072;2022-10-16T13:49:45;1.67;;;1.00;;
22711;SDS011;11523;50.390;8.072;2022-10-16T13:52:18;0.90;;;0.70;;
22711;SDS011;11523;50.390;8.072;2022-10-16T13:54:44;2.88;;;0.90;;
22711;SDS011;11523;50.390;8.072;2022-10-16T13:57:14;1.85;;;0.80;;
22711;SDS011;11523;50.390;8.072;2022-10-16T13:59:40;3.22;;;1.20;;
22711;SDS011;11523;50.390;8.072;2022-10-16T14:04:44;1.63;;;1.00;;
22711;SDS011;11523;50.390;8.072;2022-10-16T14:07:13;1.10;;;1.00;;
22711;SDS011;11523;50.390;8.072;2022-10-16T14:09:40;2.45;;;1.00;;
22711;SDS011;11523;50.390;8.072;2022-10-16T14:12:10;1.42;;;1.15;;
22711;SDS011;11523;50.390;8.072;2022-10-16T14:14:40;1.33;;;0.98;;
22711;SDS011;11523;50.390;8.072;2022-10-16T14:17:13;4.50;;;0.93;;
22711;SDS011;11523;50.390;8.072;2022-10-16T14:19:39;0.88;;;0.80;;
22711;SDS011;11523;50.390;8.072;2022-10-16T14:22:11;3.58;;;0.90;;
22711;SDS011;11523;50.390;8.072;2022-10-16T14:24:44;2.22;;;0.90;;
22711;SDS011;11523;50.390;8.072;2022-10-16T14:30:19;1.38;;;1.00;;
22711;SDS011;11523;50.390;8.072;2022-10-16T14:32:55;1.50;;;0.90;;
22711;SDS011;11523;50.390;8.072;2022-10-16T14:35:22;1.35;;;0.90;;
22711;SDS011;11523;50.390;8.072;2022-10-16T14:37:50;3.50;;;1.10;;
22711;SDS011;11523;50.390;8.072;2022-10-16T14:40:17;2.75;;;1.30;;
22711;SDS011;11523;50.390;8.072;2022-10-16T14:42:43;3.70;;;0.82;;
22711;SDS011;11523;50.390;8.072;2022-10-16T14:45:10;3.38;;;1.20;;
22711;SDS011;11523;50.390;8.072;2022-10-16T14:47:36;3.05;;;1.17;;
22711;SDS011;11523;50.390;8.072;2022-10-16T14:50:12;6.47;;;1.02;;
22711;SDS011;11523;50.390;8.072;2022-10-16T14:52:38;5.13;;;1.10;;
22711;SDS011;11523;50.390;8.072;2022-10-16T14:55:04;3.67;;;1.00;;
22711;SDS011;11523;50.390;8.072;2022-10-16T14:57:31;2.72;;;0.90;;
22711;SDS011;11523;50.390;8.072;2022-10-16T14:59:59;5.38;;;1.15;;
22711;SDS011;11523;50.390;8.072;2022-10-16T15:02:27;4.18;;;1.20;;
22711;SDS011;11523;50.390;8.072;2022-10-16T15:04:53;3.10;;;1.15;;
22711;SDS011;11523;50.390;8.072;2022-10-16T15:07:20;1.75;;;1.27;;
22711;SDS011;11523;50.390;8.072;2022-10-16T15:09:46;2.63;;;1.10;;
22711;SDS011;11523;50.390;8.072;2022-10-16T15:12:12;1.52;;;1.23;;
22711;SDS011;11523;50.390;8.072;2022-10-16T15:14:38;1.30;;;1.20;;
22711;SDS011;11523;50.390;8.072;2022-10-16T15:17:04;2.10;;;1.20;;
22711;SDS011;11523;50.390;8.072;2022-10-16T15:19:30;3.20;;;1.33;;
22711;SDS011;11523;50.390;8.072;2022-10-16T15:21:56;4.93;;;1.00;;
22711;SDS011;11523;50.390;8.072;2022-10-16T15:24:22;5.18;;;1.10;;
22711;SDS011;11523;50.390;8.072;2022-10-16T15:26:48;3.58;;;1.20;;
22711;SDS011;11523;50.390;8.072;2022-10-16T15:29:14;3.28;;;1.10;;
22711;SDS011;11523;50.390;8.072;2022-10-16T15:31:40;2.33;;;1.10;;
22711;SDS011;11523;50.390;8.072;2022-10-16T15:34:12;1.75;;;1.05;;
22711;SDS011;11523;50.390;8.072;2022-10-16T15:36:38;2.33;;;1.20;;
22711;SDS011;11523;50.390;8.072;2022-10-16T15:39:12;1.40;;;1.30;;
22711;SDS011;11523;50.390;8.072;2022-10-16T15:41:38;1.45;;;1.35;;
22711;SDS011;11523;50.390;8.072;2022-10-16T15:44:04;3.72;;;1.63;;
22711;SDS011;11523;50.390;8.072;2022-10-16T15:46:30;2.92;;;1.75;;
22711;SDS011;11523;50.390;8.072;2022-10-16T15:48:58;2.13;;;1.55;;
22711;SDS011;11523;50.390;8.072;2022-10-16T15:51:24;3.30;;;1.90;;
22711;SDS011;11523;50.390;8.072;2022-10-16T15:53:53;4.65;;;3.47;;
22711;SDS011;11523;50.390;8.072;2022-10-16T15:56:19;2.30;;;2.10;;
22711;SDS011;11523;50.390;8.072;2022-10-16T15:58:47;2.75;;;1.65;;
22711;SDS011;11523;50.390;8.072;2022-10-16T16:01:12;2.20;;;2.00;;
22711;SDS011;11523;50.390;8.072;2022-10-16T16:03:39;2.03;;;1.63;;
22711;SDS011;11523;50.390;8.072;2022-10-16T16:06:06;4.50;;;1.92;;
22711;SDS011;11523;50.390;8.072;2022-10-16T16:08:32;1.83;;;1.73;;
22711;SDS011;11523;50.390;8.072;2022-10-16T16:10:59;2.25;;;1.92;;
22711;SDS011;11523;50.390;8.072;2022-10-16T16:13:25;2.72;;;1.85;;
22711;SDS011;11523;50.390;8.072;2022-10-16T16:15:51;2.63;;;1.88;;
22711;SDS011;11523;50.390;8.072;2022-10-16T16:18:17;2.28;;;1.90;;
22711;SDS011;11523;50.390;8.072;2022-10-16T16:20:43;4.38;;;2.53;;
22711;SDS011;11523;50.390;8.072;2022-10-16T16:23:09;4.32;;;2.30;;
22711;SDS011;11523;50.390;8.072;2022-10-16T16:25:35;3.05;;;2.22;;
22711;SDS011;11523;50.390;8.072;2022-10-16T16:28:01;2.95;;;2.75;;
22711;SDS011;11523;50.390;8.072;2022-10-16T16:30:27;2.65;;;2.13;;
22711;SDS011;11523;50.390;8.072;2022-10-16T16:32:53;4.97;;;2.50;;
22711;SDS011;11523;50.390;8.072;2022-10-16T16:35:19;2.50;;;2.30;;
22711;SDS011;11523;50.390;8.072;2022-10-16T16:37:46;4.50;;;2.38;;
22711;SDS011;11523;50.390;8.072;2022-10-16T16:40:12;2.55;;;2.35;;
22711;SDS011;11523;50.390;8.072;2022-10-16T16:42:38;4.80;;;2.63;;
22711;SDS011;11523;50.390;8.072;2022-10-16T16:45:04;3.30;;;2.65;;
22711;SDS011;11523;50.390;8.072;2022-10-16T16:47:30;3.88;;;2.72;;
22711;SDS011;11523;50.390;8.072;2022-10-16T16:49:56;3.72;;;2.40;;
22711;SDS011;11523;50.390;8.072;2022-10-16T16:52:22;3.60;;;2.63;;
22711;SDS011;11523;50.390;8.072;2022-10-16T16:54:48;4.57;;;2.50;;
22711;SDS011;11523;50.390;8.072;2022-10-16T16:57:17;4.43;;;2.40;;
22711;SDS011;11523;50.390;8.072;2022-10-16T16:59:43;5.10;;;2.60;;
22711;SDS011;11523;50.390;8.072;2022-10-16T17:02:09;3.95;;;2.50;;
22711;SDS011;11523;50.390;8.072;2022-10-16T17:04:35;6.60;;;2.90;;
22711;SDS011;11523;50.390;8.072;2022-10-16T17:07:01;4.88;;;2.33;;
22711;SDS011;11523;50.390;8.072;2022-10-16T17:09:27;3.78;;;2.28;;
22711;SDS011;11523;50.390;8.072;2022-10-16T17:11:53;5.40;;;2.30;;
22711;SDS011;11523;50.390;8.072;2022-10-16T17:14:19;3.53;;;2.25;;
22711;SDS011;11523;50.390;8.072;2022-10-16T17:16:45;6.30;;;2.65;;
22711;SDS011;11523;50.390;8.072;2022-10-16T17:19:13;6.13;;;2.30;;
22711;SDS011;11523;50.390;8.072;2022-10-16T17:21:40;4.03;;;2.53;;
22711;SDS011;11523;50.390;8.072;2022-10-16T17:24:06;4.43;;;2.22;;
22711;SDS011;11523;50.390;8.072;2022-10-16T17:26:32;2.60;;;2.40;;
22711;SDS011;11523;50.390;8.072;2022-10-16T17:29:02;4.70;;;2.83;;
22711;SDS011;11523;50.390;8.072;2022-10-16T17:31:32;2.40;;;2.20;;
22711;SDS011;11523;50.390;8.072;2022-10-16T17:33:59;7.55;;;2.70;;
22711;SDS011;11523;50.390;8.072;2022-10-16T17:36:25;6.50;;;2.67;;
22711;SDS011;11523;50.390;8.072;2022-10-16T17:38:53;3.38;;;2.50;;
22711;SDS011;11523;50.390;8.072;2022-10-16T17:41:20;4.45;;;2.42;;
22711;SDS011;11523;50.390;8.072;2022-10-16T17:43:47;8.05;;;2.20;;
22711;SDS011;11523;50.390;8.072;2022-10-16T17:46:13;5.38;;;2.75;;
22711;SDS011;11523;50.390;8.072;2022-10-16T17:48:40;6.15;;;2.67;;
22711;SDS011;11523;50.390;8.072;2022-10-16T17:51:07;3.33;;;2.60;;
22711;SDS011;11523;50.390;8.072;2022-10-16T17:53:34;4.15;;;3.05;;
22711;SDS011;11523;50.390;8.072;2022-10-16T17:56:03;5.85;;;3.30;;
22711;SDS011;11523;50.390;8.072;2022-10-16T17:58:29;6.20;;;3.72;;
22711;SDS011;11523;50.390;8.072;2022-10-16T18:00:55;3.85;;;3.25;;
22711;SDS011;11523;50.390;8.072;2022-10-16T18:03:21;4.05;;;3.40;;
22711;SDS011;11523;50.390;8.072;2022-10-16T18:05:47;3.80;;;3.50;;
22711;SDS011;11523;50.390;8.072;2022-10-16T18:08:13;9.27;;;3.55;;
22711;SDS011;11523;50.390;8.072;2022-10-16T18:10:44;4.97;;;3.47;;
22711;SDS011;11523;50.390;8.072;2022-10-16T18:13:11;6.05;;;3.88;;
22711;SDS011;11523;50.390;8.072;2022-10-16T18:15:37;4.03;;;3.50;;
22711;SDS011;11523;50.390;8.072;2022-10-16T18:18:03;23.33;;;18.73;;
22711;SDS011;11523;50.390;8.072;2022-10-16T18:20:29;8.73;;;6.10;;
22711;SDS011;11523;50.390;8.072;2022-10-16T18:22:54;5.80;;;4.07;;
22711;SDS011;11523;50.390;8.072;2022-10-16T18:25:20;6.38;;;3.90;;
22711;SDS011;11523;50.390;8.072;2022-10-16T18:27:46;4.10;;;3.38;;
22711;SDS011;11523;50.390;8.072;2022-10-16T18:30:12;5.20;;;3.40;;
22711;SDS011;11523;50.390;8.072;2022-10-16T18:32:38;5.50;;;3.38;;
22711;SDS011;11523;50.390;8.072;2022-10-16T18:35:04;5.18;;;3.10;;
22711;SDS011;11523;50.390;8.072;2022-10-16T18:37:30;6.03;;;3.35;;
22711;SDS011;11523;50.390;8.072;2022-10-16T18:39:56;10.45;;;3.90;;
22711;SDS011;11523;50.390;8.072;2022-10-16T18:42:22;5.65;;;3.50;;
22711;SDS011;11523;50.390;8.072;2022-10-16T18:44:48;5.95;;;3.30;;
22711;SDS011;11523;50.390;8.072;2022-10-16T18:47:14;5.95;;;4.18;;
22711;SDS011;11523;50.390;8.072;2022-10-16T18:49:47;6.05;;;4.20;;
22711;SDS011;11523;50.390;8.072;2022-10-16T18:52:13;9.75;;;4.30;;
22711;SDS011;11523;50.390;8.072;2022-10-16T18:54:47;8.65;;;4.32;;
22711;SDS011;11523;50.390;8.072;2022-10-16T18:57:13;4.80;;;3.83;;
22711;SDS011;11523;50.390;8.072;2022-10-16T18:59:39;6.47;;;4.50;;
22711;SDS011;11523;50.390;8.072;2022-10-16T19:02:05;4.47;;;4.05;;
22711;SDS011;11523;50.390;8.072;2022-10-16T19:04:31;10.32;;;4.80;;
22711;SDS011;11523;50.390;8.072;2022-10-16T19:06:57;6.13;;;4.55;;
22711;SDS011;11523;50.390;8.072;2022-10-16T19:09:23;8.85;;;3.95;;
22711;SDS011;11523;50.390;8.072;2022-10-16T19:11:49;8.05;;;4.50;;
22711;SDS011;11523;50.390;8.072;2022-10-16T19:14:16;6.72;;;4.03;;
22711;SDS011;11523;50.390;8.072;2022-10-16T19:16:42;8.57;;;4.60;;
22711;SDS011;11523;50.390;8.072;2022-10-16T19:19:10;7.18;;;4.22;;
22711;SDS011;11523;50.390;8.072;2022-10-16T19:21:36;9.48;;;4.13;;
22711;SDS011;11523;50.390;8.072;2022-10-16T19:24:06;6.47;;;4.50;;
22711;SDS011;11523;50.390;8.072;2022-10-16T19:26:32;5.97;;;4.53;;
22711;SDS011;11523;50.390;8.072;2022-10-16T19:28:59;7.40;;;4.93;;
22711;SDS011;11523;50.390;8.072;2022-10-16T19:31:27;5.68;;;4.28;;
22711;SDS011;11523;50.390;8.072;2022-10-16T19:33:54;7.78;;;4.75;;
22711;SDS011;11523;50.390;8.072;2022-10-16T19:36:24;6.93;;;5.60;;
22711;SDS011;11523;50.390;8.072;2022-10-16T19:38:52;8.68;;;5.93;;
22711;SDS011;11523;50.390;8.072;2022-10-16T19:41:18;11.60;;;6.70;;
22711;SDS011;11523;50.390;8.072;2022-10-16T19:43:44;8.80;;;6.22;;
22711;SDS011;11523;50.390;8.072;2022-10-16T19:46:11;13.38;;;7.30;;
22711;SDS011;11523;50.390;8.072;2022-10-16T19:48:38;10.75;;;6.47;;
22711;SDS011;11523;50.390;8.072;2022-10-16T19:51:04;10.93;;;5.63;;
22711;SDS011;11523;50.390;8.072;2022-10-16T19:53:30;13.02;;;5.97;;
22711;SDS011;11523;50.390;8.072;2022-10-16T19:55:57;7.60;;;6.10;;
22711;SDS011;11523;50.390;8.072;2022-10-16T19:58:23;13.45;;;5.78;;
22711;SDS011;11523;50.390;8.072;2022-10-16T20:00:49;10.80;;;5.68;;
22711;SDS011;11523;50.390;8.072;2022-10-16T20:03:15;7.40;;;5.55;;
22711;SDS011;11523;50.390;8.072;2022-10-16T20:05:54;10.32;;;5.57;;
22711;SDS011;11523;50.390;8.072;2022-10-16T20:08:21;6.30;;;5.38;;
22711;SDS011;11523;50.390;8.072;2022-10-16T20:10:48;11.05;;;5.78;;
22711;SDS011;11523;50.390;8.072;2022-10-16T20:13:14;11.90;;;6.22;;
22711;SDS011;11523;50.390;8.072;2022-10-16T20:15:40;11.93;;;5.82;;
22711;SDS011;11523;50.390;8.072;2022-10-16T20:18:05;8.02;;;5.75;;
22711;SDS011;11523;50.390;8.072;2022-10-16T20:20:35;11.57;;;5.60;;
22711;SDS011;11523;50.390;8.072;2022-10-16T20:23:01;7.07;;;6.05;;
22711;SDS011;11523;50.390;8.072;2022-10-16T20:25:27;7.28;;;5.93;;
22711;SDS011;11523;50.390;8.072;2022-10-16T20:27:53;7.07;;;5.55;;
22711;SDS011;11523;50.390;8.072;2022-10-16T20:30:19;6.68;;;5.13;;
22711;SDS011;11523;50.390;8.072;2022-10-16T20:32:45;10.90;;;5.90;;
22711;SDS011;11523;50.390;8.072;2022-10-16T20:35:11;8.35;;;5.55;;
22711;SDS011;11523;50.390;8.072;2022-10-16T20:37:37;10.98;;;5.43;;